Terminal Aerodrome Forecast
Issued by NWS Brownsville, TX

Home | Current Version | Previous Version | Text Only | Print | Product List | Glossary On
Versions: 1 2 3 4 5 6 7 8 9 10 11 12 13
000
FTUS44 KBRO 032329
TAFHRL
TAF
KHRL 032329Z 0400/0424 14020G27KT P6SM FEW030
     FM040200 14012KT P6SM SKC
     FM040600 15005KT P6SM SKC
     FM041500 17012G17KT P6SM SCT050
     FM042100 14020G27KT P6SM SKC=

USA.gov is the U.S. government's official web portal to all federal, state and local government web resources and services.